createdAt,value
2022-09-12T00:00:52.928Z,99637.09
2022-09-12T00:02:25.363Z,99630.75
2022-09-12T00:03:58.706Z,99627.94
2022-09-12T00:05:32.285Z,99629.91
2022-09-12T00:07:04.387Z,99625.75
2022-09-12T00:08:37.519Z,99635.34
2022-09-12T00:10:09.631Z,99631.19
2022-09-12T00:11:46.111Z,99631.91
2022-09-12T00:13:18.239Z,99630.47
2022-09-12T00:14:50.331Z,99629.03
2022-09-12T00:16:23.498Z,99622.88
2022-09-12T00:17:55.892Z,99627.03
2022-09-12T00:19:28.788Z,99632.47
2022-09-12T00:21:04.834Z,99622.16
2022-09-12T00:22:37.270Z,99633.75
2022-09-12T00:24:10.643Z,99633.75
2022-09-12T00:25:46.809Z,99630.31
2022-09-12T00:27:18.955Z,99627.44
2022-09-12T00:28:51.239Z,99634.75
2022-09-12T00:30:23.979Z,99634.59
2022-09-12T00:31:56.240Z,99637.88
2022-09-12T00:33:28.337Z,99630.44
2022-09-12T00:35:02.794Z,99637.16
2022-09-12T00:36:35.745Z,99632.28
2022-09-12T00:38:07.779Z,99630.28
2022-09-12T00:39:39.883Z,99630.84
2022-09-12T00:41:19.248Z,99630.28
2022-09-12T00:42:52.393Z,99624.84
2022-09-12T00:44:24.470Z,99628.84
2022-09-12T00:45:57.970Z,99626.69
2022-09-12T00:47:31.713Z,99625.97
2022-09-12T00:49:10.186Z,99624.13
2022-09-12T00:50:42.211Z,99617.25
2022-09-12T00:52:21.796Z,99614.53
2022-09-12T00:53:55.361Z,99617.25
2022-09-12T00:55:30.203Z,99615.81
2022-09-12T00:57:04.725Z,99607.66
2022-09-12T00:58:40.058Z,99609.81
2022-09-12T01:00:16.894Z,99613.25
2022-09-12T01:01:50.908Z,99605.97
2022-09-12T01:03:23.479Z,99607.38
2022-09-12T01:04:56.009Z,99603.38
2022-09-12T01:06:29.762Z,99604.09
2022-09-12T01:08:03.278Z,99600.13
2022-09-12T01:09:36.686Z,99598.84
2022-09-12T01:11:09.713Z,99591.41
2022-09-12T01:12:43.403Z,99594.81
2022-09-12T01:14:16.813Z,99597.53
2022-09-12T01:15:48.827Z,99591.97
2022-09-12T01:17:21.342Z,99598.50
2022-09-12T01:19:03.545Z,99600.94
2022-09-12T01:20:57.994Z,99596.63
2022-09-12T01:22:30.209Z,99595.91
2022-09-12T01:24:20.765Z,99599.34
2022-09-12T01:26:11.951Z,99591.19
2022-09-12T01:27:43.996Z,99604.78
2022-09-12T01:29:22.106Z,99594.47
2022-09-12T01:31:00.770Z,99594.47
2022-09-12T01:32:45.709Z,99605.34
2022-09-12T01:34:26.436Z,99603.91
2022-09-12T01:36:08.840Z,99605.94
2022-09-12T01:37:54.662Z,99595.06
2022-09-12T01:39:49.889Z,99595.06
2022-09-12T01:41:41.160Z,99596.47
2022-09-12T01:43:31.904Z,99587.03
2022-09-12T01:45:09.929Z,99600.78
2022-09-12T01:46:45.806Z,99599.50
2022-09-12T01:48:29.874Z,99595.50
2022-09-12T01:50:05.226Z,99599.50
2022-09-12T01:52:04.567Z,99595.50
2022-09-12T01:53:39.515Z,99592.78
2022-09-12T01:55:13.689Z,99587.47
2022-09-12T01:56:45.919Z,99589.66
2022-09-12T01:58:20.977Z,99585.06
2022-09-12T01:59:56.626Z,99577.66
2022-09-12T02:01:30.793Z,99585.94
2022-09-12T02:03:10.933Z,99588.06
2022-09-12T02:04:48.923Z,99581.53
2022-09-12T02:06:23.731Z,99581.97
2022-09-12T02:08:16.068Z,99578.13
2022-09-12T02:09:52.234Z,99584.72
2022-09-12T02:11:24.877Z,99581.59
2022-09-12T02:12:59.781Z,99579.72
2022-09-12T02:14:34.046Z,99572.56
2022-09-12T02:16:10.746Z,99577.47
2022-09-12T02:17:44.397Z,99575.03
2022-09-12T02:19:18.143Z,99574.44
2022-09-12T02:20:51.730Z,99569.31
2022-09-12T02:22:25.594Z,99574.75
2022-09-12T02:23:59.569Z,99570.13
2022-09-12T02:25:31.601Z,99568.88
2022-09-12T02:27:06.177Z,99571.03
2022-09-12T02:28:40.559Z,99574.47
2022-09-12T02:30:16.495Z,99573.16
2022-09-12T02:31:50.985Z,99571.91
2022-09-12T02:33:35.055Z,99571.19
2022-09-12T02:35:09.476Z,99574.63
2022-09-12T02:37:00.535Z,99573.16
2022-09-12T02:38:44.503Z,99571.19
2022-09-12T02:40:16.872Z,99565.00
2022-09-12T02:41:53.091Z,99573.91
2022-09-12T02:43:25.258Z,99577.34
2022-09-12T02:44:57.423Z,99571.91
2022-09-12T02:46:55.757Z,99568.59
2022-09-12T02:48:30.586Z,99562.56
2022-09-12T02:50:05.189Z,99561.84
2022-09-12T02:51:37.648Z,99570.91
2022-09-12T02:53:10.673Z,99560.72
2022-09-12T02:54:43.655Z,99562.16
2022-09-12T02:56:19.265Z,99563.56
2022-09-12T02:57:51.304Z,99570.47
2022-09-12T02:59:24.567Z,99561.00
2022-09-12T03:01:03.505Z,99563.00
2022-09-12T03:02:38.550Z,99563.16
2022-09-12T03:04:29.394Z,99551.72
2022-09-12T03:06:04.446Z,99554.56
2022-09-12T03:07:39.165Z,99550.53
2022-09-12T03:09:36.629Z,99555.44
2022-09-12T03:11:23.247Z,99555.44
2022-09-12T03:13:01.326Z,99564.31
2022-09-12T03:14:51.532Z,99554.84
2022-09-12T03:16:31.352Z,99554.13
2022-09-12T03:18:17.237Z,99558.28
2022-09-12T03:20:05.229Z,99557.56
2022-09-12T03:21:37.548Z,99552.13
2022-09-12T03:23:18.918Z,99565.75
2022-09-12T03:24:58.105Z,99554.28
2022-09-12T03:26:38.228Z,99561.72
2022-09-12T03:28:15.395Z,99557.00
2022-09-12T03:29:48.207Z,99551.41
2022-09-12T03:31:20.493Z,99557.44
2022-09-12T03:32:53.731Z,99566.16
2022-09-12T03:34:27.892Z,99554.97
2022-09-12T03:36:00.003Z,99560.84
2022-09-12T03:37:32.473Z,99552.41
2022-09-12T03:39:04.516Z,99556.28
2022-09-12T03:40:37.674Z,99556.84
2022-09-12T03:42:09.848Z,99557.28
2022-09-12T03:43:42.019Z,99555.00
2022-09-12T03:45:14.240Z,99546.66
2022-09-12T03:46:46.647Z,99549.94
2022-09-12T03:48:18.723Z,99553.25
2022-09-12T03:49:52.532Z,99551.69
2022-09-12T03:51:24.611Z,99546.81
2022-09-12T03:52:59.046Z,99545.34
2022-09-12T03:54:31.119Z,99550.69
2022-09-12T03:56:07.478Z,99555.22
2022-09-12T03:57:39.673Z,99553.09
2022-09-12T03:59:12.098Z,99553.63
2022-09-12T04:00:44.397Z,99555.09
2022-09-12T04:02:16.912Z,99561.81
2022-09-12T04:03:50.189Z,99554.94
2022-09-12T04:05:22.867Z,99552.19
2022-09-12T04:06:55.204Z,99558.97
2022-09-12T04:08:27.374Z,99555.53
2022-09-12T04:09:59.498Z,99552.63
2022-09-12T04:11:32.363Z,99561.38
2022-09-12T04:13:04.569Z,99563.19
2022-09-12T04:14:36.710Z,99565.91
2022-09-12T04:16:09.348Z,99567.94
2022-09-12T04:17:42.141Z,99562.50
2022-09-12T04:19:14.427Z,99558.50
2022-09-12T04:20:46.724Z,99566.66
2022-09-12T04:22:18.798Z,99564.66
2022-09-12T04:23:51.691Z,99562.66
2022-09-12T04:25:24.192Z,99561.53
2022-09-12T04:26:56.261Z,99559.06
2022-09-12T04:28:32.946Z,99557.41
2022-09-12T04:30:05.752Z,99556.41
2022-09-12T04:31:37.760Z,99557.41
2022-09-12T04:33:09.997Z,99557.00
2022-09-12T04:34:42.087Z,99557.09
2022-09-12T04:36:16.782Z,99560.00
2022-09-12T04:37:48.835Z,99556.13
2022-09-12T04:39:21.133Z,99548.69
2022-09-12T04:40:53.186Z,99551.53
2022-09-12T04:42:26.490Z,99552.97
2022-09-12T04:44:01.446Z,99540.97
2022-09-12T04:45:33.831Z,99552.69
2022-09-12T04:47:05.899Z,99547.41
2022-09-12T04:48:38.331Z,99546.09
2022-09-12T04:50:10.376Z,99554.97
2022-09-12T04:51:43.420Z,99546.28
2022-09-12T04:53:15.458Z,99554.56
2022-09-12T04:54:47.891Z,99549.41
2022-09-12T04:56:20.205Z,99551.13
2022-09-12T04:57:53.050Z,99553.44
2022-09-12T04:59:25.108Z,99563.88
2022-09-12T05:01:03.935Z,99555.72
2022-09-12T05:02:36.070Z,99549.69
2022-09-12T05:04:09.696Z,99556.59
2022-09-12T05:05:41.683Z,99557.13
2022-09-12T05:07:14.160Z,99557.13
2022-09-12T05:08:46.329Z,99550.41
2022-09-12T05:10:18.507Z,99553.88
2022-09-12T05:12:06.045Z,99561.56
2022-09-12T05:13:38.946Z,99556.41
2022-09-12T05:15:11.078Z,99565.59
2022-09-12T05:16:46.127Z,99561.28
2022-09-12T05:18:21.428Z,99565.88
2022-09-12T05:19:53.866Z,99570.13
2022-09-12T05:21:26.595Z,99576.03
2022-09-12T05:22:59.775Z,99578.88
2022-09-12T05:24:32.651Z,99577.13
2022-09-12T05:26:06.035Z,99577.44
2022-09-12T05:27:38.228Z,99575.06
2022-09-12T05:29:10.348Z,99577.09
2022-09-12T05:30:42.397Z,99583.81
2022-09-12T05:32:14.897Z,99575.91
2022-09-12T05:33:48.338Z,99578.06
2022-09-12T05:35:20.456Z,99584.03
2022-09-12T05:36:52.581Z,99585.38
2022-09-12T05:38:25.182Z,99591.28
2022-09-12T05:40:00.000Z,99596.44
2022-09-12T05:41:34.396Z,99596.19
2022-09-12T05:43:06.415Z,99587.16
2022-09-12T05:44:38.849Z,99587.75
2022-09-12T05:46:20.612Z,99587.75
2022-09-12T05:47:53.101Z,99590.19
2022-09-12T05:49:25.138Z,99596.97
2022-09-12T05:51:01.707Z,99593.78
2022-09-12T05:52:33.934Z,99591.91
2022-09-12T05:54:07.294Z,99594.75
2022-09-12T05:55:41.910Z,99596.34
2022-09-12T05:57:14.446Z,99600.16
2022-09-12T05:58:48.002Z,99586.63
2022-09-12T06:00:20.810Z,99601.38
2022-09-12T06:01:52.858Z,99594.03
2022-09-12T06:03:25.444Z,99601.59
2022-09-12T06:04:57.880Z,99596.50
2022-09-12T06:06:30.598Z,99596.19
2022-09-12T06:08:02.892Z,99596.03
2022-09-12T06:09:35.331Z,99591.75
2022-09-12T06:11:07.926Z,99593.66
2022-09-12T06:12:40.100Z,99594.97
2022-09-12T06:14:15.281Z,99603.97
2022-09-12T06:15:47.785Z,99604.31
2022-09-12T06:17:19.870Z,99611.09
2022-09-12T06:18:53.760Z,99599.19
2022-09-12T06:20:25.871Z,99599.31
2022-09-12T06:21:58.912Z,99609.06
2022-09-12T06:23:31.058Z,99601.00
2022-09-12T06:25:03.233Z,99603.72
2022-09-12T06:26:35.817Z,99611.09
2022-09-12T06:28:08.666Z,99610.38
2022-09-12T06:29:40.742Z,99614.66
2022-09-12T06:31:14.426Z,99612.63
2022-09-12T06:32:46.471Z,99618.22
2022-09-12T06:34:20.013Z,99622.28
2022-09-12T06:35:52.152Z,99622.28
2022-09-12T06:37:24.308Z,99620.69
2022-09-12T06:38:57.912Z,99620.38
2022-09-12T06:40:30.299Z,99625.38
2022-09-12T06:42:02.348Z,99637.16
2022-09-12T06:43:39.847Z,99627.06
2022-09-12T06:45:11.854Z,99630.06
2022-09-12T06:46:44.673Z,99620.81
2022-09-12T06:48:16.787Z,99627.00
2022-09-12T06:49:49.312Z,99631.63
2022-09-12T06:51:21.493Z,99622.00
2022-09-12T06:52:54.045Z,99625.16
2022-09-12T06:54:27.118Z,99626.28
2022-09-12T06:56:00.668Z,99627.69
2022-09-12T06:57:36.374Z,99618.75
2022-09-12T06:59:08.763Z,99611.22
2022-09-12T07:00:40.970Z,99620.84
2022-09-12T07:02:13.164Z,99614.22
2022-09-12T07:03:49.363Z,99624.78
2022-09-12T07:05:22.249Z,99626.81
2022-09-12T07:06:54.267Z,99621.78
2022-09-12T07:08:26.676Z,99629.03
2022-09-12T07:09:58.776Z,99631.19
2022-09-12T07:11:32.717Z,99629.81
2022-09-12T07:13:04.696Z,99626.69
2022-09-12T07:14:36.898Z,99629.25
2022-09-12T07:16:10.121Z,99630.06
2022-09-12T07:17:42.692Z,99629.88
2022-09-12T07:19:14.800Z,99630.09
2022-09-12T07:20:46.956Z,99635.16
2022-09-12T07:22:19.181Z,99636.72
2022-09-12T07:24:00.712Z,99639.28
2022-09-12T07:25:32.747Z,99635.13
2022-09-12T07:27:05.083Z,99649.69
2022-09-12T07:28:37.215Z,99642.91
2022-09-12T07:30:09.768Z,99646.91
2022-09-12T07:31:41.864Z,99645.97
2022-09-12T07:33:14.109Z,99644.03
2022-09-12T07:34:46.125Z,99649.50
2022-09-12T07:36:19.935Z,99648.22
2022-09-12T07:37:51.989Z,99644.81
2022-09-12T07:39:24.168Z,99651.44
2022-09-12T07:40:56.212Z,99651.53
2022-09-12T07:42:29.903Z,99644.66
2022-09-12T07:44:02.732Z,99658.69
2022-09-12T07:45:35.171Z,99651.16
2022-09-12T07:47:07.491Z,99655.75
2022-09-12T07:48:40.372Z,99655.28
2022-09-12T07:50:12.445Z,99659.16
2022-09-12T07:51:44.536Z,99658.09
2022-09-12T07:53:16.541Z,99657.75
2022-09-12T07:54:48.989Z,99662.00
2022-09-12T07:56:22.052Z,99658.91
2022-09-12T07:57:56.324Z,99660.88
2022-09-12T07:59:50.967Z,99657.13
2022-09-12T08:01:23.344Z,99651.72
2022-09-12T08:02:56.565Z,99663.59
2022-09-12T08:04:28.834Z,99663.25
2022-09-12T08:06:11.052Z,99665.75
2022-09-12T08:07:43.521Z,99662.56
2022-09-12T08:09:17.491Z,99651.81
2022-09-12T08:10:49.716Z,99646.22
2022-09-12T08:12:21.902Z,99650.28
2022-09-12T08:13:56.261Z,99656.47
2022-09-12T08:15:28.441Z,99648.22
2022-09-12T08:17:00.939Z,99659.94
2022-09-12T08:18:33.263Z,99658.19
2022-09-12T08:20:06.032Z,99664.25
2022-09-12T08:21:38.108Z,99663.84
2022-09-12T08:23:10.384Z,99664.00
2022-09-12T08:24:43.857Z,99668.34
2022-09-12T08:26:16.297Z,99658.47
2022-09-12T08:27:48.736Z,99668.19
2022-09-12T08:29:21.456Z,99666.06
2022-09-12T08:30:53.953Z,99671.31
2022-09-12T08:32:26.418Z,99671.63
2022-09-12T08:33:58.582Z,99677.59
2022-09-12T08:35:30.677Z,99671.03
2022-09-12T08:37:03.021Z,99671.44
2022-09-12T08:38:36.270Z,99666.69
2022-09-12T08:40:14.152Z,99663.69
2022-09-12T08:41:47.397Z,99670.72
2022-09-12T08:43:31.070Z,99661.97
2022-09-12T08:45:09.085Z,99660.56
2022-09-12T08:46:46.830Z,99664.28
2022-09-12T08:48:19.372Z,99669.34
2022-09-12T08:49:54.854Z,99661.94
2022-09-12T08:51:28.414Z,99664.88
2022-09-12T08:53:03.513Z,99667.41
2022-09-12T08:54:35.732Z,99670.50
2022-09-12T08:56:11.470Z,99665.66
2022-09-12T08:57:44.203Z,99679.63
2022-09-12T08:59:16.629Z,99672.63
2022-09-12T09:00:59.592Z,99656.78
2022-09-12T09:02:37.703Z,99665.72
2022-09-12T09:04:20.274Z,99663.69
2022-09-12T09:06:03.159Z,99668.34
2022-09-12T09:07:52.692Z,99662.75
2022-09-12T09:09:36.240Z,99659.41
2022-09-12T09:11:20.811Z,99666.31
2022-09-12T09:12:52.849Z,99662.97
2022-09-12T09:14:46.931Z,99667.88
2022-09-12T09:16:19.142Z,99659.00
2022-09-12T09:17:58.154Z,99662.59
2022-09-12T09:19:33.102Z,99660.66
2022-09-12T09:21:11.712Z,99665.75
2022-09-12T09:22:53.674Z,99662.03
2022-09-12T09:24:28.459Z,99666.59
2022-09-12T09:26:10.890Z,99662.25
2022-09-12T09:27:52.010Z,99672.44
2022-09-12T09:29:26.599Z,99665.06
2022-09-12T09:30:58.955Z,99663.91
2022-09-12T09:32:36.906Z,99673.25
2022-09-12T09:34:22.286Z,99665.34
2022-09-12T09:35:56.898Z,99664.72
2022-09-12T09:37:37.755Z,99682.59
2022-09-12T09:39:30.527Z,99668.44
2022-09-12T09:41:02.605Z,99672.78
2022-09-12T09:42:46.838Z,99663.91
2022-09-12T09:44:19.414Z,99675.38
2022-09-12T09:45:52.421Z,99672.31
2022-09-12T09:47:24.635Z,99669.19
2022-09-12T09:48:58.667Z,99659.56
2022-09-12T09:50:31.096Z,99655.88
2022-09-12T09:52:04.265Z,99668.84
2022-09-12T09:53:40.282Z,99651.38
2022-09-12T09:55:16.336Z,99657.84
2022-09-12T09:56:49.020Z,99657.72
2022-09-12T09:58:31.243Z,99654.31
2022-09-12T10:00:32.843Z,99649.22
2022-09-12T10:02:14.100Z,99651.09
2022-09-12T10:03:50.624Z,99642.91
2022-09-12T10:05:23.445Z,99642.69
2022-09-12T10:07:02.467Z,99645.47
2022-09-12T10:08:36.690Z,99649.81
2022-09-12T10:10:16.305Z,99648.09
2022-09-12T10:11:49.597Z,99647.03
2022-09-12T10:13:30.829Z,99648.25
2022-09-12T10:15:14.242Z,99640.97
2022-09-12T10:16:52.720Z,99645.34
2022-09-12T10:18:35.737Z,99635.91
2022-09-12T10:20:26.904Z,99640.44
2022-09-12T10:22:00.946Z,99634.50
2022-09-12T10:23:37.776Z,99641.41
2022-09-12T10:25:12.205Z,99641.00
2022-09-12T10:26:45.399Z,99635.75
2022-09-12T10:28:22.770Z,99641.91
2022-09-12T10:30:00.327Z,99639.81
2022-09-12T10:31:43.239Z,99649.31
2022-09-12T10:33:15.361Z,99652.78
2022-09-12T10:34:47.993Z,99645.44
2022-09-12T10:36:20.603Z,99644.63
2022-09-12T10:37:58.572Z,99638.31
2022-09-12T10:39:31.398Z,99637.28
2022-09-12T10:41:11.539Z,99630.00
2022-09-12T10:42:43.636Z,99632.59
2022-09-12T10:44:28.960Z,99633.16
2022-09-12T10:46:21.333Z,99636.16
2022-09-12T10:47:54.291Z,99633.88
2022-09-12T10:49:31.303Z,99630.16
2022-09-12T10:51:03.513Z,99640.44
2022-09-12T10:52:35.609Z,99641.25
2022-09-12T10:54:10.200Z,99631.13
2022-09-12T10:56:01.390Z,99633.84
2022-09-12T10:57:44.348Z,99632.44
2022-09-12T10:59:28.742Z,99632.22
2022-09-12T11:01:09.964Z,99630.56
2022-09-12T11:02:54.374Z,99622.88
2022-09-12T11:04:32.332Z,99624.03
2022-09-12T11:06:05.455Z,99625.13
2022-09-12T11:07:47.890Z,99629.69
2022-09-12T11:09:27.191Z,99620.53
2022-09-12T11:11:14.652Z,99622.16
2022-09-12T11:12:51.397Z,99618.53
2022-09-12T11:14:27.963Z,99613.72
2022-09-12T11:15:59.987Z,99611.19
2022-09-12T11:17:53.663Z,99612.44
2022-09-12T11:19:32.077Z,99608.09
2022-09-12T11:21:16.285Z,99611.84
2022-09-12T11:22:48.316Z,99620.25
2022-09-12T11:24:31.434Z,99613.31
2022-09-12T11:26:15.800Z,99611.78
2022-09-12T11:27:53.635Z,99610.06
2022-09-12T11:29:46.925Z,99607.75
2022-09-12T11:31:23.055Z,99602.44
2022-09-12T11:33:13.347Z,99601.47
2022-09-12T11:35:04.546Z,99605.41
2022-09-12T11:36:36.934Z,99606.06
2022-09-12T11:38:11.817Z,99600.25
2022-09-12T11:39:52.280Z,99598.03
2022-09-12T11:41:31.538Z,99594.47
2022-09-12T11:43:22.356Z,99598.34
2022-09-12T11:44:59.936Z,99604.50
2022-09-12T11:46:36.263Z,99602.09
2022-09-12T11:48:11.880Z,99606.84
2022-09-12T11:49:47.337Z,99608.25
2022-09-12T11:51:20.884Z,99607.63
2022-09-12T11:52:55.212Z,99595.38
2022-09-12T11:54:28.029Z,99598.91
2022-09-12T11:56:05.488Z,99601.19
2022-09-12T11:57:41.140Z,99600.66
2022-09-12T11:59:31.634Z,99601.59
2022-09-12T12:01:15.390Z,99596.84
2022-09-12T12:03:06.333Z,99597.63
2022-09-12T12:04:41.719Z,99587.84
2022-09-12T12:06:35.903Z,99579.28
2022-09-12T12:08:08.519Z,99580.22
2022-09-12T12:09:49.294Z,99586.88
2022-09-12T12:11:43.658Z,99582.31
2022-09-12T12:13:15.713Z,99584.84
2022-09-12T12:14:49.001Z,99577.38
2022-09-12T12:16:21.448Z,99575.59
2022-09-12T12:18:19.988Z,99561.63
2022-09-12T12:20:07.515Z,99568.97
2022-09-12T12:21:40.822Z,99562.63
2022-09-12T12:23:28.681Z,99564.59
2022-09-12T12:25:03.649Z,99559.22
2022-09-12T12:26:54.669Z,99556.81
2022-09-12T12:28:42.309Z,99553.34
2022-09-12T12:30:29.612Z,99553.44
2022-09-12T12:32:02.164Z,99550.44
2022-09-12T12:33:54.916Z,99554.38
2022-09-12T12:35:36.766Z,99548.81
2022-09-12T12:37:21.231Z,99552.06
2022-09-12T12:38:53.835Z,99553.22
2022-09-12T12:40:27.701Z,99554.34
2022-09-12T12:42:00.226Z,99559.31
2022-09-12T12:43:32.494Z,99550.19
2022-09-12T12:45:23.558Z,99547.84
2022-09-12T12:47:14.187Z,99554.69
2022-09-12T12:48:54.736Z,99553.97
2022-09-12T12:50:28.235Z,99545.59
2022-09-12T12:52:03.817Z,99544.84
2022-09-12T12:53:36.005Z,99546.53
2022-09-12T12:55:20.490Z,99544.50
2022-09-12T12:57:00.697Z,99551.97
2022-09-12T12:58:40.723Z,99543.53
2022-09-12T13:00:24.692Z,99549.63
2022-09-12T13:01:58.921Z,99549.28
2022-09-12T13:03:32.928Z,99551.25
2022-09-12T13:05:08.019Z,99541.09
2022-09-12T13:06:42.094Z,99546.75
2022-09-12T13:08:17.391Z,99542.63
2022-09-12T13:09:52.928Z,99542.53
2022-09-12T13:11:35.376Z,99538.81
2022-09-12T13:13:08.758Z,99540.84
2022-09-12T13:14:43.961Z,99538.56
2022-09-12T13:16:34.853Z,99539.88
2022-09-12T13:18:21.854Z,99551.50
2022-09-12T13:20:26.166Z,99543.09
2022-09-12T13:22:00.738Z,99542.69
2022-09-12T13:23:33.416Z,99547.25
2022-09-12T13:25:19.318Z,99539.97
2022-09-12T13:26:51.597Z,99543.22
2022-09-12T13:28:24.463Z,99540.31
2022-09-12T13:30:07.178Z,99529.75
2022-09-12T13:31:43.151Z,99536.91
2022-09-12T13:33:19.001Z,99524.72
2022-09-12T13:35:17.190Z,99533.31
2022-09-12T13:36:58.652Z,99528.31
2022-09-12T13:38:42.292Z,99542.00
2022-09-12T13:40:14.619Z,99528.38
2022-09-12T13:41:55.410Z,99532.94
2022-09-12T13:43:49.347Z,99535.38
2022-09-12T13:45:23.339Z,99537.09
2022-09-12T13:46:58.058Z,99521.25
2022-09-12T13:48:30.957Z,99525.50
2022-09-12T13:50:04.638Z,99527.91
2022-09-12T13:51:37.015Z,99527.63
2022-09-12T13:53:17.090Z,99523.72
2022-09-12T13:54:52.169Z,99519.41
2022-09-12T13:56:24.329Z,99525.28
2022-09-12T13:57:58.184Z,99515.78
2022-09-12T13:59:39.985Z,99524.28
2022-09-12T14:01:13.871Z,99521.16
2022-09-12T14:02:49.313Z,99519.50
2022-09-12T14:04:43.893Z,99522.47
2022-09-12T14:06:19.047Z,99519.00
2022-09-12T14:07:55.303Z,99511.38
2022-09-12T14:09:41.060Z,99526.47
2022-09-12T14:11:21.101Z,99526.09
2022-09-12T14:12:55.289Z,99517.91
2022-09-12T14:14:31.508Z,99528.28
2022-09-12T14:16:03.781Z,99524.28
2022-09-12T14:17:38.808Z,99517.66
2022-09-12T14:19:12.438Z,99520.13
2022-09-12T14:20:44.594Z,99533.44
2022-09-12T14:22:20.069Z,99521.91
2022-09-12T14:23:52.195Z,99527.75
2022-09-12T14:25:25.563Z,99529.66
2022-09-12T14:26:57.920Z,99520.09
2022-09-12T14:28:31.214Z,99518.41
2022-09-12T14:30:03.518Z,99520.34
2022-09-12T14:31:38.029Z,99520.22
2022-09-12T14:33:10.124Z,99524.84
2022-09-12T14:34:42.571Z,99517.84
2022-09-12T14:36:23.951Z,99529.59
2022-09-12T14:37:56.510Z,99512.97
2022-09-12T14:39:31.841Z,99518.28
2022-09-12T14:41:08.455Z,99509.81
2022-09-12T14:42:41.227Z,99507.50
2022-09-12T14:44:19.429Z,99510.13
2022-09-12T14:45:52.964Z,99513.72
2022-09-12T14:47:27.399Z,99508.31
2022-09-12T14:49:19.786Z,99509.16
2022-09-12T14:50:53.410Z,99505.81
2022-09-12T14:52:30.113Z,99497.81
2022-09-12T14:54:02.818Z,99510.69
2022-09-12T14:55:43.201Z,99503.34
2022-09-12T14:57:30.857Z,99501.63
2022-09-12T14:59:21.796Z,99504.38
2022-09-12T15:01:00.187Z,99496.69
2022-09-12T15:02:34.133Z,99500.84
2022-09-12T15:04:06.263Z,99502.91
2022-09-12T15:05:48.361Z,99495.97
2022-09-12T15:07:20.424Z,99502.25
2022-09-12T15:08:57.418Z,99498.25
2022-09-12T15:10:35.158Z,99503.91
2022-09-12T15:12:09.255Z,99501.25
2022-09-12T15:13:41.843Z,99502.72
2022-09-12T15:15:18.785Z,99506.19
2022-09-12T15:16:51.006Z,99504.22
2022-09-12T15:18:24.526Z,99507.59
2022-09-12T15:19:56.610Z,99495.94
2022-09-12T15:21:29.261Z,99495.16
2022-09-12T15:23:01.539Z,99497.84
2022-09-12T15:24:33.666Z,99499.25
2022-09-12T15:26:06.479Z,99500.59
2022-09-12T15:27:42.344Z,99498.50
2022-09-12T15:29:14.422Z,99498.41
2022-09-12T15:30:47.491Z,99499.75
2022-09-12T15:32:24.196Z,99498.31
2022-09-12T15:33:59.152Z,99498.16
2022-09-12T15:35:32.653Z,99497.38
2022-09-12T15:37:09.124Z,99504.00
2022-09-12T15:38:41.316Z,99501.03
2022-09-12T15:40:13.780Z,99505.50
2022-09-12T15:41:47.869Z,99499.06
2022-09-12T15:43:20.822Z,99497.47
2022-09-12T15:44:53.158Z,99503.53
2022-09-12T15:46:25.714Z,99504.72
2022-09-12T15:47:58.359Z,99506.69
2022-09-12T15:49:30.413Z,99497.63
2022-09-12T15:51:04.430Z,99507.94
2022-09-12T15:52:36.859Z,99513.34
2022-09-12T15:54:11.575Z,99506.53
2022-09-12T15:55:44.040Z,99498.97
2022-09-12T15:57:16.148Z,99501.81
2022-09-12T15:58:59.279Z,99491.59
2022-09-12T16:00:31.892Z,99500.53
2022-09-12T16:02:04.169Z,99502.59
2022-09-12T16:03:36.376Z,99504.56
2022-09-12T16:05:13.341Z,99504.47
2022-09-12T16:06:45.604Z,99500.31
2022-09-12T16:08:17.756Z,99494.72
2022-09-12T16:09:50.169Z,99500.22
2022-09-12T16:11:22.565Z,99503.06
2022-09-12T16:12:54.736Z,99510.59
2022-09-12T16:14:26.836Z,99506.59
2022-09-12T16:15:59.523Z,99510.13
2022-09-12T16:17:31.949Z,99512.19
2022-09-12T16:19:04.016Z,99510.94
2022-09-12T16:20:36.135Z,99500.53
2022-09-12T16:22:08.225Z,99509.50
2022-09-12T16:23:42.252Z,99508.00
2022-09-12T16:25:14.429Z,99511.94
2022-09-12T16:26:46.798Z,99502.81
2022-09-12T16:28:19.018Z,99506.13
2022-09-12T16:29:52.067Z,99502.41
2022-09-12T16:31:24.630Z,99500.03
2022-09-12T16:32:56.759Z,99508.13
2022-09-12T16:34:29.016Z,99503.69
2022-09-12T16:36:09.371Z,99503.97
2022-09-12T16:37:41.581Z,99505.63
2022-09-12T16:39:13.934Z,99510.75
2022-09-12T16:40:46.080Z,99507.13
2022-09-12T16:42:19.406Z,99503.41
2022-09-12T16:43:51.858Z,99507.31
2022-09-12T16:45:23.959Z,99500.31
2022-09-12T16:46:56.040Z,99495.31
2022-09-12T16:48:28.756Z,99501.34
2022-09-12T16:50:00.969Z,99505.25
2022-09-12T16:51:36.097Z,99506.50
2022-09-12T16:53:08.255Z,99507.06
2022-09-12T16:54:40.729Z,99506.94
2022-09-12T16:56:13.096Z,99503.28
2022-09-12T16:57:45.977Z,99499.84
2022-09-12T16:59:18.090Z,99508.09
2022-09-12T17:00:59.660Z,99499.84
2022-09-12T17:02:31.759Z,99504.00
2022-09-12T17:04:04.025Z,99505.34
2022-09-12T17:05:36.274Z,99501.88
2022-09-12T17:07:08.803Z,99507.19
2022-09-12T17:08:42.957Z,99500.91
2022-09-12T17:10:15.273Z,99500.50
2022-09-12T17:11:47.965Z,99497.00
2022-09-12T17:13:20.350Z,99508.41
2022-09-12T17:14:52.409Z,99501.22
2022-09-12T17:16:24.849Z,99506.50
2022-09-12T17:17:58.074Z,99509.91
2022-09-12T17:19:30.714Z,99498.09
2022-09-12T17:21:02.890Z,99510.50
2022-09-12T17:22:35.015Z,99509.06
2022-09-12T17:24:07.149Z,99509.06
2022-09-12T17:25:39.668Z,99512.34
2022-09-12T17:27:12.084Z,99515.78
2022-09-12T17:28:44.316Z,99515.09
2022-09-12T17:30:16.360Z,99519.25
2022-09-12T17:31:48.930Z,99519.34
2022-09-12T17:33:21.068Z,99509.72
2022-09-12T17:34:53.337Z,99510.31
2022-09-12T17:36:25.666Z,99523.25
2022-09-12T17:37:59.224Z,99519.69
2022-09-12T17:39:31.392Z,99527.13
2022-09-12T17:41:07.677Z,99531.50
2022-09-12T17:42:40.977Z,99526.94
2022-09-12T17:44:14.997Z,99533.38
2022-09-12T17:45:55.017Z,99535.16
2022-09-12T17:47:27.577Z,99543.53
2022-09-12T17:49:01.017Z,99541.25
2022-09-12T17:50:40.605Z,99534.22
2022-09-12T17:52:13.328Z,99530.03
2022-09-12T17:53:45.486Z,99532.78
2022-09-12T17:55:17.996Z,99534.81
2022-09-12T17:56:51.607Z,99529.97
2022-09-12T17:58:23.739Z,99533.31
2022-09-12T17:59:55.803Z,99529.13
2022-09-12T18:01:47.440Z,99532.53
2022-09-12T18:03:23.219Z,99527.63
2022-09-12T18:04:55.525Z,99521.22
2022-09-12T18:06:31.878Z,99532.81
2022-09-12T18:08:03.969Z,99532.59
2022-09-12T18:09:36.493Z,99530.28
2022-09-12T18:11:08.596Z,99534.84
2022-09-12T18:12:40.915Z,99531.28
2022-09-12T18:14:14.370Z,99535.72
2022-09-12T18:15:47.117Z,99536.34
2022-09-12T18:17:19.193Z,99534.72
2022-09-12T18:18:51.573Z,99535.94
2022-09-12T18:20:23.828Z,99535.69
2022-09-12T18:21:56.406Z,99542.22
2022-09-12T18:23:28.475Z,99539.75
2022-09-12T18:25:00.539Z,99536.78
2022-09-12T18:26:33.266Z,99544.19
2022-09-12T18:28:09.257Z,99541.84
2022-09-12T18:29:41.379Z,99549.38
2022-09-12T18:31:15.342Z,99543.75
2022-09-12T18:32:47.711Z,99551.25
2022-09-12T18:34:20.485Z,99552.47
2022-09-12T18:35:52.589Z,99547.38
2022-09-12T18:37:24.802Z,99543.72
2022-09-12T18:38:57.775Z,99549.59
2022-09-12T18:40:30.143Z,99548.16
2022-09-12T18:42:02.268Z,99543.28
2022-09-12T18:43:34.429Z,99548.66
2022-09-12T18:45:06.865Z,99547.75